Terminal Aerodrome Forecast
Issued by NWS Binghamton, NY

Home | Current Version | Previous Version | Text Only | Print | Product List | Glossary On
Versions: 1 2 3 4 5 6 7 8 9 10 11 12 13 14 15 16 17
000
FTUS41 KBGM 010500
TAFSYR
TAF
KSYR 010526Z 0106/0206 VRB03KT P6SM SCT025
      TEMPO 0106/0109 5SM BR OVC025
     FM010900 VRB03KT 4SM BR SCT008 OVC015
      TEMPO 0110/0113 OVC008
     FM011300 VRB03KT P6SM BKN025
     FM011500 27008KT P6SM BKN040
     FM020000 VRB03KT P6SM SCT040 BKN150=

USA.gov is the U.S. government's official web portal to all federal, state and local government web resources and services.